Time;durP1;ratioP1;P1;durP2;ratioP2;P2;SDS_P1;SDS_P2;PMS_P1;PMS_P2;Temp;Humidity;BMP_temperature;BMP_pressure;BME280_temperature;BME280_humidity;BME280_pressure;Samples;Min_cycle;Max_cycle;Signal;HPM_P1;HPM_P2
2021/11/24 00:00:07;;;;;;;33.60;15.03;;;-3.30;98.10;;;;;;2065647;28;20194;-55
2021/11/24 00:01:08;;;;;;;28.88;14.10;;;-3.30;98.00;;;;;;2065344;28;20955;-59
2021/11/24 00:02:09;;;;;;;25.10;12.93;;;-3.30;98.40;;;;;;2065523;28;20223;-57
2021/11/24 00:03:09;;;;;;;26.97;14.23;;;-3.30;98.50;;;;;;2065630;28;20250;-58
2021/11/24 00:04:10;;;;;;;28.10;14.10;;;-3.40;98.80;;;;;;2065693;28;20272;-61
2021/11/24 00:05:11;;;;;;;26.07;13.43;;;-3.30;98.90;;;;;;2065457;28;20187;-57
2021/11/24 00:06:11;;;;;;;24.03;13.17;;;-3.30;98.80;;;;;;2065577;28;20221;-56
2021/11/24 00:07:12;;;;;;;24.10;13.63;;;-3.30;98.80;;;;;;2065271;28;20229;-60
2021/11/24 00:08:13;;;;;;;26.03;13.67;;;-3.40;98.80;;;;;;2065811;28;20195;-58
2021/11/24 00:09:13;;;;;;;23.20;13.20;;;-3.30;98.90;;;;;;2065540;28;20183;-57
2021/11/24 00:10:17;;;;;;;28.57;14.23;;;-3.30;99.10;;;;;;2065552;28;20233;-62
2021/11/24 00:11:18;;;;;;;24.48;13.07;;;-3.30;99.30;;;;;;2065337;28;20173;-60
2021/11/24 00:12:18;;;;;;;24.10;13.20;;;-3.30;99.50;;;;;;2065617;28;20545;-60
2021/11/24 00:13:19;;;;;;;28.17;14.63;;;-3.30;99.60;;;;;;2065503;28;20663;-59
2021/11/24 00:14:20;;;;;;;28.03;14.20;;;-3.30;99.80;;;;;;2065458;28;20174;-59
2021/11/24 00:15:21;;;;;;;25.37;13.47;;;-3.30;99.70;;;;;;2065330;28;20180;-57
2021/11/24 00:16:24;;;;;;;24.67;12.57;;;-3.20;99.70;;;;;;2065285;28;20229;-58
2021/11/24 00:17:24;;;;;;;24.42;13.38;;;-3.20;99.60;;;;;;2064805;28;20192;-57
2021/11/24 00:18:25;;;;;;;25.13;13.63;;;-3.20;99.60;;;;;;2065070;28;20210;-56
2021/11/24 00:19:26;;;;;;;23.38;12.50;;;-3.20;99.40;;;;;;2065586;28;20196;-59
2021/11/24 00:20:27;;;;;;;24.87;13.50;;;-3.20;99.30;;;;;;2065308;28;20187;-57
2021/11/24 00:21:28;;;;;;;26.75;13.52;;;-3.20;99.10;;;;;;2065420;28;20643;-64
2021/11/24 00:22:29;;;;;;;22.23;12.87;;;-3.20;99.00;;;;;;2065065;28;20190;-62
2021/11/24 00:23:30;;;;;;;24.05;13.82;;;-3.30;98.80;;;;;;2065363;28;20205;-59
2021/11/24 00:24:30;;;;;;;23.87;12.80;;;-3.30;98.60;;;;;;2065112;28;20192;-59
2021/11/24 00:25:31;;;;;;;21.30;12.40;;;-3.30;98.70;;;;;;2065458;28;20560;-60
2021/11/24 00:26:32;;;;;;;23.20;12.40;;;-3.30;98.60;;;;;;2065223;28;20636;-59
2021/11/24 00:27:33;;;;;;;24.30;13.87;;;-3.40;98.40;;;;;;2064606;28;20207;-59
2021/11/24 00:28:34;;;;;;;27.80;14.27;;;-3.40;98.30;;;;;;2065427;28;20539;-60
2021/11/24 00:29:34;;;;;;;28.70;13.93;;;-3.40;98.20;;;;;;2065323;28;20185;-60
2021/11/24 00:30:35;;;;;;;26.30;12.60;;;-3.50;98.40;;;;;;2065324;28;20711;-61
2021/11/24 00:31:36;;;;;;;21.83;12.27;;;-3.50;98.80;;;;;;2065246;28;20678;-58
2021/11/24 00:32:37;;;;;;;22.97;13.27;;;-3.50;98.90;;;;;;2064998;28;20928;-60
2021/11/24 00:33:37;;;;;;;24.10;13.33;;;-3.50;99.10;;;;;;2065475;28;20191;-58
2021/11/24 00:34:38;;;;;;;21.90;12.60;;;-3.50;99.30;;;;;;2065427;28;20186;-55
2021/11/24 00:35:39;;;;;;;25.30;14.57;;;-3.50;99.50;;;;;;2065610;28;20191;-56
2021/11/24 00:36:40;;;;;;;22.08;13.50;;;-3.60;99.50;;;;;;2065133;28;20198;-56
2021/11/24 00:37:41;;;;;;;24.80;13.17;;;-3.60;99.10;;;;;;2064995;28;20687;-57
2021/11/24 00:38:42;;;;;;;27.03;13.27;;;-3.60;99.30;;;;;;2056588;28;20190;-59
2021/11/24 00:39:43;;;;;;;22.30;13.13;;;-3.60;98.70;;;;;;2056696;28;20248;-59
2021/11/24 00:40:44;;;;;;;25.33;12.80;;;-3.60;98.80;;;;;;2065356;28;20183;-60
2021/11/24 00:41:44;;;;;;;23.90;13.40;;;-3.60;98.80;;;;;;2065619;28;20804;-56
2021/11/24 00:42:45;;;;;;;21.63;12.13;;;-3.70;98.70;;;;;;2065467;28;20205;-59
2021/11/24 00:43:46;;;;;;;21.93;12.53;;;-3.70;98.70;;;;;;2056663;28;20188;-56
2021/11/24 00:44:47;;;;;;;24.43;12.63;;;-3.70;98.50;;;;;;2056392;28;20703;-58
2021/11/24 00:45:49;;;;;;;23.50;13.02;;;-3.70;98.50;;;;;;2056413;28;20183;-62
2021/11/24 00:46:50;;;;;;;24.23;13.25;;;-3.70;98.70;;;;;;2056120;28;20635;-61
2021/11/24 00:47:51;;;;;;;24.37;12.70;;;-3.70;98.60;;;;;;2065177;28;20250;-61
2021/11/24 00:48:51;;;;;;;28.27;14.23;;;-3.70;98.70;;;;;;2065094;28;20214;-61
2021/11/24 00:49:52;;;;;;;27.53;13.30;;;-3.70;99.30;;;;;;2065179;28;20174;-61
2021/11/24 00:50:53;;;;;;;26.33;14.03;;;-3.60;99.60;;;;;;2065227;28;20184;-59
2021/11/24 00:51:54;;;;;;;23.80;13.27;;;-3.70;99.60;;;;;;2065012;28;20265;-60
2021/11/24 00:52:54;;;;;;;23.90;12.70;;;-3.70;99.40;;;;;;2065046;28;20180;-60
2021/11/24 00:53:55;;;;;;;23.43;12.87;;;-3.70;99.00;;;;;;2065030;28;20180;-61
2021/11/24 00:54:57;;;;;;;19.60;11.63;;;-3.70;99.00;;;;;;2065001;28;20197;-61
2021/11/24 00:55:58;;;;;;;24.67;12.95;;;-3.70;99.20;;;;;;2065169;28;20179;-61
2021/11/24 00:56:58;;;;;;;26.60;12.97;;;-3.70;99.10;;;;;;2064758;28;20261;-61
2021/11/24 00:57:59;;;;;;;24.97;13.57;;;-3.70;99.00;;;;;;2065244;28;20173;-61
2021/11/24 00:59:00;;;;;;;25.23;13.83;;;-3.70;99.00;;;;;;2056613;28;20190;-60
2021/11/24 01:00:00;;;;;;;28.23;13.80;;;-3.70;99.10;;;;;;2056442;28;20208;-61
2021/11/24 01:01:01;;;;;;;22.83;11.83;;;-3.70;99.40;;;;;;2065278;28;20179;-60
2021/11/24 01:02:02;;;;;;;25.33;13.83;;;-3.60;99.50;;;;;;2065001;28;20269;-61
2021/11/24 01:03:03;;;;;;;27.23;14.43;;;-3.70;99.40;;;;;;2065220;28;20215;-61
2021/11/24 01:04:04;;;;;;;29.53;15.27;;;-3.60;99.30;;;;;;2065016;28;20176;-60
2021/11/24 01:05:05;;;;;;;24.17;13.47;;;-3.60;99.00;;;;;;2056544;28;20184;-61
2021/11/24 01:06:06;;;;;;;26.35;14.38;;;-3.60;98.80;;;;;;2056515;28;20179;-58
2021/11/24 01:07:06;;;;;;;30.25;13.38;;;-3.60;98.80;;;;;;2064917;28;20217;-58
2021/11/24 01:08:07;;;;;;;28.10;14.93;;;-3.60;98.70;;;;;;2065259;28;20222;-60
2021/11/24 01:09:08;;;;;;;26.63;14.13;;;-3.60;98.80;;;;;;2064995;28;20250;-61
2021/11/24 01:10:09;;;;;;;28.43;14.20;;;-3.60;99.00;;;;;;2064950;28;20266;-61
2021/11/24 01:11:10;;;;;;;26.33;13.65;;;-3.60;99.00;;;;;;2065040;28;20181;-58
2021/11/24 01:12:11;;;;;;;30.90;14.75;;;-3.60;99.00;;;;;;2065080;28;20725;-61
2021/11/24 01:13:14;;;;;;;25.07;13.50;;;-3.60;99.00;;;;;;2065019;28;20312;-61
2021/11/24 01:14:15;;;;;;;28.98;14.23;;;-3.60;98.90;;;;;;2064781;28;20600;-61
2021/11/24 01:15:17;;;;;;;25.13;12.53;;;-3.50;99.00;;;;;;2064713;28;20184;-61
2021/11/24 01:16:17;;;;;;;28.10;13.90;;;-3.50;99.20;;;;;;2064811;28;20188;-61
2021/11/24 01:17:18;;;;;;;27.73;15.13;;;-3.50;99.40;;;;;;2064326;28;20211;-60
2021/11/24 01:18:21;;;;;;;26.67;14.37;;;-3.60;99.50;;;;;;2064730;28;20190;-61
2021/11/24 01:19:21;;;;;;;29.63;15.27;;;-3.50;99.50;;;;;;2064871;28;20410;-60
2021/11/24 01:20:23;;;;;;;31.10;15.20;;;-3.50;99.60;;;;;;2064701;28;20191;-59
2021/11/24 01:21:23;;;;;;;29.38;14.68;;;-3.50;99.60;;;;;;2064918;28;20187;-61
2021/11/24 01:22:24;;;;;;;29.57;14.70;;;-3.50;99.60;;;;;;2056150;28;20242;-61
2021/11/24 01:23:25;;;;;;;29.30;14.67;;;-3.50;99.70;;;;;;2056351;28;20187;-60
2021/11/24 01:24:26;;;;;;;27.90;14.27;;;-3.50;99.80;;;;;;2064907;28;20191;-61
2021/11/24 01:25:29;;;;;;;28.67;15.73;;;-3.50;99.70;;;;;;2064751;28;20652;-61
2021/11/24 01:26:30;;;;;;;26.70;13.45;;;-3.50;99.60;;;;;;2064872;28;20219;-60
2021/11/24 01:27:31;;;;;;;30.17;14.83;;;-3.50;99.50;;;;;;2064590;28;20206;-60
2021/11/24 01:28:32;;;;;;;27.15;14.75;;;-3.50;99.50;;;;;;2064839;28;20218;-61
2021/11/24 01:29:33;;;;;;;31.77;14.50;;;-3.50;99.60;;;;;;2065965;28;20178;-61
2021/11/24 01:30:34;;;;;;;29.00;14.00;;;-3.50;99.50;;;;;;2066360;28;20171;-61
2021/11/24 01:31:36;;;;;;;28.33;13.77;;;-3.50;99.30;;;;;;2057706;28;20186;-61
2021/11/24 01:32:37;;;;;;;31.38;15.20;;;-3.50;99.30;;;;;;2057869;28;20255;-61
2021/11/24 01:33:38;;;;;;;33.22;15.10;;;-3.50;99.20;;;;;;2066407;28;20170;-61
2021/11/24 01:34:39;;;;;;;29.93;15.63;;;-3.40;99.30;;;;;;2066317;28;20191;-61
2021/11/24 01:35:40;;;;;;;28.20;14.10;;;-3.40;99.40;;;;;;2066371;28;20811;-59
2021/11/24 01:36:41;;;;;;;34.73;16.87;;;-3.50;99.50;;;;;;2066126;28;20185;-61
2021/11/24 01:37:42;;;;;;;28.63;14.37;;;-3.40;99.60;;;;;;2066053;28;20546;-59
2021/11/24 01:38:43;;;;;;;26.20;13.57;;;-3.40;99.60;;;;;;2066380;28;20188;-61
2021/11/24 01:39:44;;;;;;;30.75;15.35;;;-3.40;99.60;;;;;;2066389;28;20199;-61
2021/11/24 01:40:45;;;;;;;31.03;14.87;;;-3.40;99.60;;;;;;2066287;28;20267;-59
2021/11/24 01:41:45;;;;;;;32.20;14.83;;;-3.40;99.60;;;;;;2066423;28;20187;-59
2021/11/24 01:42:46;;;;;;;28.90;14.40;;;-3.40;99.60;;;;;;2066255;28;20613;-60
2021/11/24 01:43:47;;;;;;;26.10;14.20;;;-3.30;99.40;;;;;;2066422;28;20211;-59
2021/11/24 01:44:48;;;;;;;28.57;15.03;;;-3.30;99.20;;;;;;2066349;28;20187;-57
2021/11/24 01:45:48;;;;;;;28.30;14.63;;;-3.30;99.20;;;;;;2066336;28;20210;-61
2021/11/24 01:47:01;;;;;;;34.80;16.07;;;-3.30;99.20;;;;;;2066188;28;20307;-61
2021/11/24 01:48:02;;;;;;;30.95;14.90;;;-3.30;99.20;;;;;;2057805;28;20250;-61
2021/11/24 01:49:03;;;;;;;30.23;15.23;;;-3.30;99.00;;;;;;2057817;28;20621;-59
2021/11/24 01:50:06;;;;;;;30.40;14.57;;;-3.20;98.80;;;;;;2066272;28;20184;-61
2021/11/24 01:51:07;;;;;;;27.13;14.65;;;-3.20;98.60;;;;;;2066289;28;20216;-61
2021/11/24 01:52:07;;;;;;;29.13;15.67;;;-3.30;98.40;;;;;;2066211;28;20546;-58
2021/11/24 01:53:08;;;;;;;25.90;13.57;;;-3.30;98.20;;;;;;2066334;28;20239;-61
2021/11/24 01:54:09;;;;;;;31.17;14.90;;;-3.30;98.30;;;;;;2066298;28;20262;-61
2021/11/24 01:55:11;;;;;;;30.20;13.97;;;-3.30;98.50;;;;;;2066448;28;20199;-61
2021/11/24 01:56:13;;;;;;;34.28;15.52;;;-3.20;99.10;;;;;;2066147;28;20193;-61
2021/11/24 01:57:18;;;;;;;30.02;15.48;;;-3.20;99.50;;;;;;2066066;28;20705;-60
2021/11/24 01:58:19;;;;;;;31.50;16.77;;;-3.20;99.70;;;;;;2065778;28;20840;-61
2021/11/24 01:59:20;;;;;;;35.23;16.40;;;-3.20;99.70;;;;;;2066233;28;20193;-61
2021/11/24 02:00:30;;;;;;;32.80;16.63;;;-3.20;99.50;;;;;;2066279;28;20183;-59
2021/11/24 02:01:31;;;;;;;32.88;16.65;;;-3.20;99.40;;;;;;2066475;28;20179;-61
2021/11/24 02:02:32;;;;;;;32.90;15.40;;;-3.10;99.30;;;;;;2066384;28;20212;-61
2021/11/24 02:03:32;;;;;;;30.17;15.23;;;-3.10;99.30;;;;;;2066110;28;20194;-59
2021/11/24 02:04:33;;;;;;;31.63;14.43;;;-3.10;99.50;;;;;;2066285;28;20205;-60
2021/11/24 02:05:34;;;;;;;30.63;14.97;;;-3.10;99.90;;;;;;2066185;28;20603;-60
2021/11/24 02:06:34;;;;;;;29.37;15.67;;;-3.00;99.90;;;;;;2066103;28;20181;-59
2021/11/24 02:07:35;;;;;;;31.47;14.40;;;-3.00;99.90;;;;;;2066021;28;20211;-61
2021/11/24 02:08:36;;;;;;;24.73;14.07;;;-3.10;99.90;;;;;;2066112;28;20212;-61
2021/11/24 02:09:37;;;;;;;35.60;16.67;;;-3.10;99.90;;;;;;2066203;28;20549;-61
2021/11/24 02:10:38;;;;;;;35.57;16.87;;;-3.00;99.90;;;;;;2066180;28;20265;-59
2021/11/24 02:11:44;;;;;;;37.67;16.33;;;-3.00;99.90;;;;;;2066743;28;20195;-61
2021/11/24 02:12:45;;;;;;;28.20;14.50;;;-3.00;99.90;;;;;;2066397;28;20186;-61
2021/11/24 02:13:46;;;;;;;33.20;15.25;;;-3.00;99.90;;;;;;2066248;28;20212;-61
2021/11/24 02:14:47;;;;;;;31.03;15.93;;;-3.00;99.90;;;;;;2066237;28;20189;-61
2021/11/24 02:15:47;;;;;;;35.13;16.93;;;-2.90;99.90;;;;;;2066215;28;20184;-62
2021/11/24 02:16:53;;;;;;;33.83;17.60;;;-2.90;99.90;;;;;;2066219;28;20211;-61
2021/11/24 02:17:54;;;;;;;31.20;15.40;;;-2.90;99.90;;;;;;2066358;28;20216;-61
2021/11/24 02:18:54;;;;;;;32.37;16.43;;;-2.90;99.70;;;;;;2066293;28;20191;-61
2021/11/24 02:19:55;;;;;;;33.53;15.83;;;-2.90;99.50;;;;;;2066119;28;20676;-61
2021/11/24 02:20:56;;;;;;;31.80;16.03;;;-2.90;99.20;;;;;;2066130;28;20564;-59
2021/11/24 02:21:57;;;;;;;33.93;16.70;;;-2.90;99.50;;;;;;2066121;28;20178;-61
2021/11/24 02:22:58;;;;;;;36.80;16.23;;;-3.00;99.60;;;;;;2066206;28;20187;-61
2021/11/24 02:23:58;;;;;;;31.90;16.40;;;-3.00;99.60;;;;;;2066140;28;20212;-59
2021/11/24 02:24:59;;;;;;;32.70;15.83;;;-3.00;99.50;;;;;;2066027;28;20217;-61
2021/11/24 02:26:00;;;;;;;32.50;16.37;;;-3.00;99.30;;;;;;2066182;28;20177;-61
2021/11/24 02:27:03;;;;;;;32.80;14.47;;;-3.00;99.10;;;;;;2065913;28;20185;-61
2021/11/24 02:28:04;;;;;;;31.63;15.50;;;-3.00;99.10;;;;;;2066232;28;20180;-61
2021/11/24 02:29:05;;;;;;;30.27;15.70;;;-3.00;99.10;;;;;;2065887;28;20214;-60
2021/11/24 02:30:06;;;;;;;25.77;14.03;;;-3.00;99.20;;;;;;2065944;28;20541;-60
2021/11/24 02:31:21;;;;;;;34.58;15.75;;;-2.90;99.30;;;;;;2065788;28;20182;-59
2021/11/24 02:32:22;;;;;;;31.85;15.57;;;-2.90;99.40;;;;;;2066011;28;20262;-60
2021/11/24 02:33:23;;;;;;;31.50;15.20;;;-2.90;99.40;;;;;;2065891;28;20184;-59
2021/11/24 02:34:26;;;;;;;27.63;14.73;;;-2.90;99.40;;;;;;2065909;28;20177;-59
2021/11/24 02:35:26;;;;;;;30.85;15.35;;;-2.90;99.40;;;;;;2065779;28;20181;-59
2021/11/24 02:36:30;;;;;;;29.27;16.00;;;-2.90;99.50;;;;;;2065743;28;20182;-59
2021/11/24 02:37:30;;;;;;;31.67;14.95;;;-2.80;99.60;;;;;;2065557;28;20203;-59
2021/11/24 02:38:31;;;;;;;34.03;16.40;;;-2.80;99.70;;;;;;2065921;28;20176;-60
2021/11/24 02:39:32;;;;;;;32.47;15.47;;;-2.70;99.70;;;;;;2065819;28;20544;-61
2021/11/24 02:40:34;;;;;;;30.23;15.37;;;-2.70;99.70;;;;;;2065319;28;20183;-61
2021/11/24 02:41:35;;;;;;;32.97;15.77;;;-2.70;99.80;;;;;;2065291;28;20188;-60
2021/11/24 02:42:41;;;;;;;34.97;15.88;;;-2.70;99.80;;;;;;2065839;28;20693;-60
2021/11/24 02:43:41;;;;;;;30.83;15.82;;;-2.70;99.90;;;;;;2065742;28;20189;-60
2021/11/24 02:44:42;;;;;;;29.87;15.90;;;-2.60;99.90;;;;;;2065984;28;20540;-61
2021/11/24 02:45:43;;;;;;;33.57;17.03;;;-2.60;99.90;;;;;;2065875;28;20240;-61
2021/11/24 02:46:45;;;;;;;34.33;17.50;;;-2.60;99.90;;;;;;2065683;28;20189;-60
2021/11/24 02:47:46;;;;;;;32.28;15.45;;;-2.50;99.90;;;;;;2065532;28;20665;-61
2021/11/24 02:48:46;;;;;;;30.87;16.00;;;-2.40;99.80;;;;;;2065735;28;20211;-61
2021/11/24 02:49:51;;;;;;;32.40;16.27;;;-2.40;99.70;;;;;;2065886;28;20181;-61
2021/11/24 02:50:54;;;;;;;33.38;16.13;;;-2.30;99.70;;;;;;2065874;28;20183;-61
2021/11/24 02:51:54;;;;;;;28.65;14.65;;;-2.30;99.50;;;;;;2065713;28;20264;-59
2021/11/24 02:52:55;;;;;;;29.43;14.20;;;-2.30;99.20;;;;;;2065619;28;20263;-61
2021/11/24 02:53:56;;;;;;;29.42;14.13;;;-2.40;99.10;;;;;;2065645;28;20189;-61
2021/11/24 02:55:00;;;;;;;29.00;14.90;;;-2.40;99.40;;;;;;2065677;28;20191;-61
2021/11/24 02:56:02;;;;;;;29.70;15.23;;;-2.40;99.60;;;;;;2065724;28;20227;-61
2021/11/24 02:57:05;;;;;;;26.05;15.07;;;-2.40;99.50;;;;;;2065444;28;20188;-61
2021/11/24 02:58:06;;;;;;;29.52;14.43;;;-2.40;99.50;;;;;;2065471;28;20180;-61
2021/11/24 02:59:09;;;;;;;28.10;14.53;;;-2.40;99.60;;;;;;2065726;28;20180;-59
2021/11/24 03:00:16;;;;;;;26.02;14.90;;;-2.40;99.60;;;;;;2065564;28;20184;-60
2021/11/24 03:01:17;;;;;;;24.95;13.57;;;-2.40;99.60;;;;;;2065702;28;20222;-59
2021/11/24 03:02:17;;;;;;;26.50;14.03;;;-2.40;99.50;;;;;;2065701;28;20804;-59
2021/11/24 03:03:18;;;;;;;29.33;14.07;;;-2.40;99.30;;;;;;2065661;28;20232;-61
2021/11/24 03:04:19;;;;;;;28.03;15.50;;;-2.40;99.40;;;;;;2056921;28;20777;-59
2021/11/24 03:05:24;;;;;;;26.53;14.20;;;-2.40;99.60;;;;;;2057153;28;20190;-58
2021/11/24 03:06:25;;;;;;;31.75;14.68;;;-2.30;99.60;;;;;;2065634;28;20420;-58
2021/11/24 03:07:26;;;;;;;28.70;14.63;;;-2.30;99.70;;;;;;2065432;28;20209;-59
2021/11/24 03:08:26;;;;;;;27.93;15.23;;;-2.30;99.60;;;;;;2065517;28;20189;-58
2021/11/24 03:09:27;;;;;;;27.17;14.33;;;-2.30;99.50;;;;;;2065737;28;20671;-60
2021/11/24 03:10:29;;;;;;;25.67;14.37;;;-2.30;99.50;;;;;;2065633;28;20228;-59
2021/11/24 03:11:30;;;;;;;29.33;15.02;;;-2.20;99.50;;;;;;2065672;28;20487;-61
2021/11/24 03:12:31;;;;;;;29.85;15.50;;;-2.30;99.50;;;;;;2056768;28;20761;-60
2021/11/24 03:13:32;;;;;;;28.48;15.23;;;-2.20;99.60;;;;;;2057010;28;20317;-60
2021/11/24 03:14:33;;;;;;;28.97;14.63;;;-2.20;99.60;;;;;;2065528;28;20247;-61
2021/11/24 03:15:34;;;;;;;29.10;15.73;;;-2.20;99.70;;;;;;2065622;28;20181;-58
2021/11/24 03:16:35;;;;;;;28.17;14.75;;;-2.20;99.80;;;;;;2065612;28;20765;-60
2021/11/24 03:17:36;;;;;;;33.10;14.87;;;-2.20;99.70;;;;;;2065137;28;20219;-61
2021/11/24 03:18:37;;;;;;;30.13;15.95;;;-2.10;99.70;;;;;;2065495;28;20196;-61
2021/11/24 03:19:37;;;;;;;29.87;15.10;;;-2.10;99.50;;;;;;2065457;28;20197;-58
2021/11/24 03:20:38;;;;;;;29.23;13.77;;;-2.10;99.50;;;;;;2063824;28;20193;-61
2021/11/24 03:21:39;;;;;;;29.13;14.87;;;-2.00;99.50;;;;;;2065560;28;20213;-60
2021/11/24 03:22:40;;;;;;;29.57;14.13;;;-2.00;99.40;;;;;;2064986;28;20182;-60
2021/11/24 03:23:41;;;;;;;28.92;15.25;;;-2.00;99.40;;;;;;2064998;28;20181;-60
2021/11/24 03:24:41;;;;;;;32.63;16.33;;;-2.00;99.20;;;;;;2065595;28;20247;-59
2021/11/24 03:25:42;;;;;;;29.37;15.00;;;-2.00;99.00;;;;;;2065785;28;20269;-60
2021/11/24 03:26:43;;;;;;;28.57;14.33;;;-2.00;99.10;;;;;;2065645;28;20849;-60
2021/11/24 03:27:44;;;;;;;27.93;15.37;;;-2.00;99.20;;;;;;2065438;28;20452;-61
2021/11/24 03:28:46;;;;;;;28.55;15.20;;;-1.90;99.30;;;;;;2065525;28;20580;-59
2021/11/24 03:29:46;;;;;;;31.95;15.88;;;-1.90;99.30;;;;;;2065552;28;20642;-60
2021/11/24 03:30:47;;;;;;;28.20;15.60;;;-1.90;99.20;;;;;;2065619;28;20194;-59
2021/11/24 03:31:48;;;;;;;30.50;15.50;;;-1.90;99.10;;;;;;2065426;28;20193;-61
2021/11/24 03:32:50;;;;;;;29.23;15.60;;;-1.90;99.20;;;;;;2065352;28;20192;-59
2021/11/24 03:33:51;;;;;;;26.55;14.13;;;-1.90;99.20;;;;;;2065482;28;20212;-59
2021/11/24 03:34:51;;;;;;;28.33;15.37;;;-1.90;99.10;;;;;;2065585;28;20178;-59
2021/11/24 03:35:52;;;;;;;27.47;15.20;;;-1.90;99.20;;;;;;2065348;28;20208;-59
2021/11/24 03:36:53;;;;;;;29.47;14.87;;;-1.80;99.10;;;;;;2064988;28;20178;-59
2021/11/24 03:37:54;;;;;;;28.10;15.27;;;-1.80;99.10;;;;;;2065390;28;20227;-58
2021/11/24 03:38:55;;;;;;;29.35;15.45;;;-1.80;99.10;;;;;;2065315;28;20243;-60
2021/11/24 03:39:56;;;;;;;29.67;14.80;;;-1.80;99.20;;;;;;2065321;28;20591;-60
2021/11/24 03:40:56;;;;;;;27.90;15.03;;;-1.80;99.20;;;;;;2065214;28;20239;-60
2021/11/24 03:41:57;;;;;;;29.93;16.30;;;-1.80;99.30;;;;;;2065321;28;20181;-60
2021/11/24 03:42:59;;;;;;;27.50;15.03;;;-1.80;99.30;;;;;;2065397;28;20220;-59
2021/11/24 03:43:59;;;;;;;29.52;15.77;;;-1.80;99.40;;;;;;2065342;28;20183;-59
2021/11/24 03:45:00;;;;;;;31.73;16.57;;;-1.80;99.40;;;;;;2065263;28;20229;-59
2021/11/24 03:46:02;;;;;;;28.92;15.50;;;-1.70;99.40;;;;;;2065031;28;20723;-61
2021/11/24 03:47:03;;;;;;;29.27;15.85;;;-1.70;99.10;;;;;;2064851;28;20643;-61
2021/11/24 03:48:06;;;;;;;31.10;15.15;;;-1.80;99.20;;;;;;2065221;28;20615;-60
2021/11/24 03:49:07;;;;;;;29.13;15.38;;;-1.70;99.20;;;;;;2065339;28;20224;-58
2021/11/24 03:50:09;;;;;;;30.07;15.93;;;-1.80;99.30;;;;;;2065132;28;20259;-60
2021/11/24 03:51:10;;;;;;;31.75;15.02;;;-1.70;99.30;;;;;;2065164;28;20236;-60
2021/11/24 03:52:10;;;;;;;31.20;15.60;;;-1.70;99.40;;;;;;2065037;28;20244;-57
2021/11/24 03:53:11;;;;;;;25.47;15.00;;;-1.70;99.50;;;;;;2065317;28;20185;-59
2021/11/24 03:54:12;;;;;;;31.53;15.80;;;-1.70;99.40;;;;;;2065190;28;20203;-61
2021/11/24 03:55:15;;;;;;;32.27;16.17;;;-1.60;99.40;;;;;;2065328;28;20528;-59
2021/11/24 03:56:15;;;;;;;30.25;16.02;;;-1.60;99.00;;;;;;2065107;28;20192;-60
2021/11/24 03:57:16;;;;;;;28.07;15.83;;;-1.60;98.70;;;;;;2064831;28;20206;-60
2021/11/24 03:58:17;;;;;;;27.20;16.27;;;-1.70;98.90;;;;;;2065230;28;20212;-60
2021/11/24 03:59:17;;;;;;;31.63;16.53;;;-1.70;99.20;;;;;;2064794;28;20189;-60
2021/11/24 04:00:23;;;;;;;29.13;15.50;;;-1.70;99.40;;;;;;2064989;28;20606;-61
2021/11/24 04:01:23;;;;;;;31.27;16.65;;;-1.70;99.60;;;;;;2065328;28;20217;-58
2021/11/24 04:02:24;;;;;;;29.50;15.83;;;-1.70;99.60;;;;;;2065101;28;20276;-61
2021/11/24 04:03:25;;;;;;;31.43;16.87;;;-1.70;99.60;;;;;;2065164;28;20185;-59
2021/11/24 04:04:25;;;;;;;29.17;15.27;;;-1.60;99.60;;;;;;2065289;28;20217;-61
2021/11/24 04:05:27;;;;;;;28.67;16.03;;;-1.60;99.10;;;;;;2065276;28;20186;-61
2021/11/24 04:06:29;;;;;;;27.65;15.00;;;-1.70;99.20;;;;;;2065222;28;20185;-60
2021/11/24 04:07:30;;;;;;;28.95;16.60;;;-1.70;99.30;;;;;;2056388;28;20305;-60
2021/11/24 04:08:30;;;;;;;31.37;16.13;;;-1.70;99.40;;;;;;2056831;28;20181;-61
2021/11/24 04:09:31;;;;;;;29.77;15.97;;;-1.60;99.30;;;;;;2065467;28;20188;-61
2021/11/24 04:10:32;;;;;;;25.63;13.50;;;-1.60;99.40;;;;;;2065428;28;20604;-61
2021/11/24 04:11:32;;;;;;;29.60;15.60;;;-1.70;98.80;;;;;;2065515;28;20214;-59
2021/11/24 04:12:34;;;;;;;29.63;16.00;;;-1.70;99.00;;;;;;2065394;28;20189;-58
2021/11/24 04:13:34;;;;;;;30.42;16.00;;;-1.70;99.20;;;;;;2065529;28;20189;-61
2021/11/24 04:14:35;;;;;;;27.97;15.43;;;-1.70;99.20;;;;;;2065484;28;20360;-60
2021/11/24 04:15:36;;;;;;;32.57;15.83;;;-1.70;99.30;;;;;;2065429;28;20181;-60
2021/11/24 04:16:37;;;;;;;29.37;15.93;;;-1.60;99.20;;;;;;2065362;28;20235;-61
2021/11/24 04:17:38;;;;;;;27.70;15.53;;;-1.60;99.10;;;;;;2064901;28;20210;-59
2021/11/24 04:18:39;;;;;;;29.33;15.75;;;-1.60;99.00;;;;;;2056437;28;20280;-60
2021/11/24 04:19:40;;;;;;;31.88;16.33;;;-1.60;98.80;;;;;;2056745;28;20252;-60
2021/11/24 04:20:41;;;;;;;30.20;16.40;;;-1.70;98.90;;;;;;2065306;28;20201;-58
2021/11/24 04:21:42;;;;;;;33.45;17.08;;;-1.70;99.10;;;;;;2065459;28;20189;-59
2021/11/24 04:22:43;;;;;;;27.57;16.00;;;-1.60;99.30;;;;;;2065284;28;20560;-61
2021/11/24 04:23:45;;;;;;;26.60;15.02;;;-1.60;99.20;;;;;;2065267;28;20669;-60
2021/11/24 04:24:46;;;;;;;30.75;16.08;;;-1.60;99.30;;;;;;2065226;28;20271;-60
2021/11/24 04:25:46;;;;;;;31.57;15.73;;;-1.60;98.70;;;;;;2065243;28;20557;-59
2021/11/24 04:26:47;;;;;;;31.20;16.57;;;-1.60;98.90;;;;;;2065053;28;20201;-59
2021/11/24 04:27:49;;;;;;;29.40;15.27;;;-1.60;98.90;;;;;;2065120;28;20227;-59
2021/11/24 04:28:50;;;;;;;29.67;15.73;;;-1.60;99.00;;;;;;2065060;28;20204;-59
2021/11/24 04:29:50;;;;;;;32.15;15.30;;;-1.70;99.00;;;;;;2056590;28;20819;-60
2021/11/24 04:30:52;;;;;;;30.63;15.90;;;-1.70;99.20;;;;;;2056627;28;20178;-61
2021/11/24 04:31:52;;;;;;;30.02;15.88;;;-1.70;99.20;;;;;;2065358;28;20201;-60
2021/11/24 04:32:53;;;;;;;30.37;16.43;;;-1.70;99.30;;;;;;2065230;28;20216;-61
2021/11/24 04:33:54;;;;;;;32.97;16.47;;;-1.70;99.40;;;;;;2065168;28;20188;-60
2021/11/24 04:34:54;;;;;;;31.73;15.67;;;-1.60;99.50;;;;;;2065145;28;20836;-59
2021/11/24 04:35:55;;;;;;;29.53;15.30;;;-1.60;99.50;;;;;;2065170;28;20329;-60
2021/11/24 04:36:56;;;;;;;27.93;15.03;;;-1.60;99.40;;;;;;2064952;28;20194;-61
2021/11/24 04:37:57;;;;;;;32.97;16.80;;;-1.60;99.40;;;;;;2065083;28;20189;-60
2021/11/24 04:38:57;;;;;;;26.75;14.93;;;-1.50;99.40;;;;;;2065280;28;20566;-59
2021/11/24 04:39:58;;;;;;;25.87;15.03;;;-1.50;99.40;;;;;;2065135;28;20182;-59
2021/11/24 04:40:59;;;;;;;31.30;15.90;;;-1.50;99.40;;;;;;2056567;28;20618;-61
2021/11/24 04:42:00;;;;;;;31.52;16.80;;;-1.40;99.00;;;;;;2056453;28;20186;-59
2021/11/24 04:43:04;;;;;;;31.63;16.43;;;-1.50;99.10;;;;;;2065180;28;20228;-59
2021/11/24 04:44:05;;;;;;;30.08;15.77;;;-1.50;98.90;;;;;;2065177;28;20173;-60
2021/11/24 04:45:06;;;;;;;32.58;15.85;;;-1.50;99.10;;;;;;2065187;28;20205;-60
2021/11/24 04:46:07;;;;;;;30.45;15.68;;;-1.50;99.00;;;;;;2065192;28;20200;-60
2021/11/24 04:47:08;;;;;;;30.33;15.83;;;-1.50;99.00;;;;;;2064932;28;20186;-61
2021/11/24 04:48:09;;;;;;;32.00;17.03;;;-1.50;99.00;;;;;;2065312;28;20205;-61
2021/11/24 04:49:09;;;;;;;31.80;17.50;;;-1.40;99.70;;;;;;2065230;28;20625;-61
2021/11/24 04:50:10;;;;;;;27.67;14.70;;;-1.40;99.00;;;;;;2065165;28;20239;-60
2021/11/24 04:51:11;;;;;;;28.27;15.90;;;-1.40;98.50;;;;;;2065082;28;20675;-60
2021/11/24 04:52:12;;;;;;;30.17;16.35;;;-1.50;98.60;;;;;;2065145;28;20672;-61
2021/11/24 04:53:13;;;;;;;27.43;15.20;;;-1.40;99.00;;;;;;2065258;28;20233;-60
2021/11/24 04:54:14;;;;;;;28.58;15.40;;;-1.50;98.60;;;;;;2065053;28;20227;-61
2021/11/24 04:55:15;;;;;;;31.13;15.87;;;-1.50;98.60;;;;;;2065197;28;20634;-60
2021/11/24 04:56:16;;;;;;;32.80;16.20;;;-1.50;98.70;;;;;;2064969;28;20504;-61
2021/11/24 04:57:17;;;;;;;25.80;14.45;;;-1.50;98.90;;;;;;2064708;28;20206;-61
2021/11/24 04:58:18;;;;;;;30.83;15.97;;;-1.50;98.80;;;;;;2065012;28;20190;-61
2021/11/24 04:59:19;;;;;;;29.27;15.90;;;-1.50;98.70;;;;;;2065110;28;20184;-59
2021/11/24 05:00:22;;;;;;;26.50;15.57;;;-1.50;98.90;;;;;;2064996;28;20182;-60
2021/11/24 05:01:23;;;;;;;29.10;15.00;;;-1.50;99.10;;;;;;2064998;28;20196;-60
2021/11/24 05:02:24;;;;;;;29.93;15.70;;;-1.50;99.20;;;;;;2064947;28;20240;-60
2021/11/24 05:03:24;;;;;;;29.37;15.97;;;-1.60;99.30;;;;;;2065091;28;20197;-59
2021/11/24 05:04:27;;;;;;;31.37;17.27;;;-1.50;99.40;;;;;;2066038;28;20853;-58
2021/11/24 05:05:29;;;;;;;29.42;16.02;;;-1.50;99.50;;;;;;2066858;28;20255;-60
2021/11/24 05:06:31;;;;;;;27.67;14.98;;;-1.50;99.40;;;;;;2066562;28;20228;-61
2021/11/24 05:07:32;;;;;;;28.60;15.52;;;-1.50;99.20;;;;;;2066391;28;20213;-61
2021/11/24 05:08:34;;;;;;;29.33;14.97;;;-1.50;99.00;;;;;;2066508;28;20189;-61
2021/11/24 05:09:35;;;;;;;30.95;15.52;;;-1.40;99.20;;;;;;2066805;28;20185;-61
2021/11/24 05:10:36;;;;;;;27.73;15.23;;;-1.40;99.50;;;;;;2066643;28;20232;-61